sensor_id;sensor_type;location;lat;lon;timestamp;P1;durP1;ratioP1;P2;durP2;ratioP2
22814;SDS011;11574;51.058;13.712;2022-10-13T00:03:31;13.30;;;6.20;;
22814;SDS011;11574;51.058;13.712;2022-10-13T00:08:33;12.10;;;5.70;;
22814;SDS011;11574;51.058;13.712;2022-10-13T00:13:37;16.03;;;6.20;;
22814;SDS011;11574;51.058;13.712;2022-10-13T00:18:39;14.87;;;6.90;;
22814;SDS011;11574;51.058;13.712;2022-10-13T00:23:41;12.30;;;6.20;;
22814;SDS011;11574;51.058;13.712;2022-10-13T00:28:45;18.67;;;6.40;;
22814;SDS011;11574;51.058;13.712;2022-10-13T00:33:48;14.47;;;6.40;;
22814;SDS011;11574;51.058;13.712;2022-10-13T00:38:52;17.03;;;6.70;;
22814;SDS011;11574;51.058;13.712;2022-10-13T00:43:57;14.03;;;6.23;;
22814;SDS011;11574;51.058;13.712;2022-10-13T00:49:01;11.07;;;6.30;;
22814;SDS011;11574;51.058;13.712;2022-10-13T00:54:05;16.93;;;6.47;;
22814;SDS011;11574;51.058;13.712;2022-10-13T00:59:14;16.57;;;5.90;;
22814;SDS011;11574;51.058;13.712;2022-10-13T01:04:24;14.97;;;6.53;;
22814;SDS011;11574;51.058;13.712;2022-10-13T01:09:27;14.63;;;6.60;;
22814;SDS011;11574;51.058;13.712;2022-10-13T01:14:37;17.13;;;6.57;;
22814;SDS011;11574;51.058;13.712;2022-10-13T01:19:57;13.20;;;6.40;;
22814;SDS011;11574;51.058;13.712;2022-10-13T01:25:07;15.27;;;7.03;;
22814;SDS011;11574;51.058;13.712;2022-10-13T01:30:17;19.50;;;6.57;;
22814;SDS011;11574;51.058;13.712;2022-10-13T01:35:23;10.03;;;6.17;;
22814;SDS011;11574;51.058;13.712;2022-10-13T01:40:29;17.57;;;7.37;;
22814;SDS011;11574;51.058;13.712;2022-10-13T01:45:34;12.30;;;6.47;;
22814;SDS011;11574;51.058;13.712;2022-10-13T01:50:38;17.47;;;6.90;;
22814;SDS011;11574;51.058;13.712;2022-10-13T01:55:50;17.57;;;6.87;;
22814;SDS011;11574;51.058;13.712;2022-10-13T02:01:01;13.67;;;6.70;;
22814;SDS011;11574;51.058;13.712;2022-10-13T02:06:04;18.07;;;6.77;;
22814;SDS011;11574;51.058;13.712;2022-10-13T02:11:12;16.77;;;7.20;;
22814;SDS011;11574;51.058;13.712;2022-10-13T02:16:16;16.63;;;6.80;;
22814;SDS011;11574;51.058;13.712;2022-10-13T02:21:20;14.00;;;6.70;;
22814;SDS011;11574;51.058;13.712;2022-10-13T02:26:22;12.97;;;6.70;;
22814;SDS011;11574;51.058;13.712;2022-10-13T02:31:27;14.00;;;6.97;;
22814;SDS011;11574;51.058;13.712;2022-10-13T02:36:29;13.57;;;7.50;;
22814;SDS011;11574;51.058;13.712;2022-10-13T02:41:32;16.03;;;8.10;;
22814;SDS011;11574;51.058;13.712;2022-10-13T02:46:36;15.40;;;6.63;;
22814;SDS011;11574;51.058;13.712;2022-10-13T02:51:39;15.87;;;7.23;;
22814;SDS011;11574;51.058;13.712;2022-10-13T02:56:41;18.33;;;7.80;;
22814;SDS011;11574;51.058;13.712;2022-10-13T03:01:45;19.67;;;6.93;;
22814;SDS011;11574;51.058;13.712;2022-10-13T03:06:47;15.20;;;7.40;;
22814;SDS011;11574;51.058;13.712;2022-10-13T03:11:51;15.23;;;7.60;;
22814;SDS011;11574;51.058;13.712;2022-10-13T03:16:55;13.00;;;7.30;;
22814;SDS011;11574;51.058;13.712;2022-10-13T03:21:57;15.13;;;8.23;;
22814;SDS011;11574;51.058;13.712;2022-10-13T03:26:59;17.50;;;7.90;;
22814;SDS011;11574;51.058;13.712;2022-10-13T03:32:03;13.87;;;7.80;;
22814;SDS011;11574;51.058;13.712;2022-10-13T03:37:05;16.23;;;8.23;;
22814;SDS011;11574;51.058;13.712;2022-10-13T03:42:07;18.80;;;8.10;;
22814;SDS011;11574;51.058;13.712;2022-10-13T03:47:10;16.93;;;7.23;;
22814;SDS011;11574;51.058;13.712;2022-10-13T03:52:13;15.63;;;7.80;;
22814;SDS011;11574;51.058;13.712;2022-10-13T03:57:15;15.30;;;7.30;;
22814;SDS011;11574;51.058;13.712;2022-10-13T04:02:18;14.70;;;7.17;;
22814;SDS011;11574;51.058;13.712;2022-10-13T04:07:21;15.13;;;7.57;;
22814;SDS011;11574;51.058;13.712;2022-10-13T04:12:23;16.73;;;7.77;;
22814;SDS011;11574;51.058;13.712;2022-10-13T04:17:26;20.00;;;8.13;;
22814;SDS011;11574;51.058;13.712;2022-10-13T04:22:28;16.43;;;7.97;;
22814;SDS011;11574;51.058;13.712;2022-10-13T04:27:31;19.20;;;8.47;;
22814;SDS011;11574;51.058;13.712;2022-10-13T04:32:34;17.70;;;7.70;;
22814;SDS011;11574;51.058;13.712;2022-10-13T04:37:36;14.07;;;8.10;;
22814;SDS011;11574;51.058;13.712;2022-10-13T04:42:38;16.03;;;8.60;;
22814;SDS011;11574;51.058;13.712;2022-10-13T04:47:42;22.60;;;8.87;;
22814;SDS011;11574;51.058;13.712;2022-10-13T04:52:44;18.53;;;8.37;;
22814;SDS011;11574;51.058;13.712;2022-10-13T04:57:46;21.40;;;8.83;;
22814;SDS011;11574;51.058;13.712;2022-10-13T05:02:50;14.80;;;8.40;;
22814;SDS011;11574;51.058;13.712;2022-10-13T05:07:52;19.87;;;9.40;;
22814;SDS011;11574;51.058;13.712;2022-10-13T05:12:54;16.87;;;8.80;;
22814;SDS011;11574;51.058;13.712;2022-10-13T05:17:58;20.33;;;8.20;;
22814;SDS011;11574;51.058;13.712;2022-10-13T05:23:00;20.70;;;8.77;;
22814;SDS011;11574;51.058;13.712;2022-10-13T05:28:03;18.67;;;9.23;;
22814;SDS011;11574;51.058;13.712;2022-10-13T05:33:06;22.13;;;8.80;;
22814;SDS011;11574;51.058;13.712;2022-10-13T05:38:09;20.93;;;9.03;;
22814;SDS011;11574;51.058;13.712;2022-10-13T05:43:11;13.63;;;8.30;;
22814;SDS011;11574;51.058;13.712;2022-10-13T05:48:16;17.57;;;8.43;;
22814;SDS011;11574;51.058;13.712;2022-10-13T05:53:18;19.67;;;8.83;;
22814;SDS011;11574;51.058;13.712;2022-10-13T05:58:20;24.80;;;9.03;;
22814;SDS011;11574;51.058;13.712;2022-10-13T06:03:24;20.87;;;8.87;;
22814;SDS011;11574;51.058;13.712;2022-10-13T06:08:29;14.93;;;8.17;;
22814;SDS011;11574;51.058;13.712;2022-10-13T06:13:31;23.90;;;10.50;;
22814;SDS011;11574;51.058;13.712;2022-10-13T06:18:35;18.75;;;10.10;;
22814;SDS011;11574;51.058;13.712;2022-10-13T06:23:37;21.90;;;9.27;;
22814;SDS011;11574;51.058;13.712;2022-10-13T06:28:39;23.23;;;9.03;;
22814;SDS011;11574;51.058;13.712;2022-10-13T06:33:43;22.73;;;9.70;;
22814;SDS011;11574;51.058;13.712;2022-10-13T06:38:46;17.17;;;9.33;;
22814;SDS011;11574;51.058;13.712;2022-10-13T06:43:48;24.23;;;9.37;;
22814;SDS011;11574;51.058;13.712;2022-10-13T06:48:52;25.00;;;10.60;;
22814;SDS011;11574;51.058;13.712;2022-10-13T06:53:55;23.40;;;10.30;;
22814;SDS011;11574;51.058;13.712;2022-10-13T06:58:57;23.57;;;9.07;;
22814;SDS011;11574;51.058;13.712;2022-10-13T07:04:00;16.47;;;8.10;;
22814;SDS011;11574;51.058;13.712;2022-10-13T07:09:08;20.40;;;9.03;;
22814;SDS011;11574;51.058;13.712;2022-10-13T07:14:10;14.97;;;7.60;;
22814;SDS011;11574;51.058;13.712;2022-10-13T07:19:14;15.23;;;8.43;;
22814;SDS011;11574;51.058;13.712;2022-10-13T07:24:17;16.17;;;7.90;;
22814;SDS011;11574;51.058;13.712;2022-10-13T07:29:20;16.97;;;8.67;;
22814;SDS011;11574;51.058;13.712;2022-10-13T07:34:23;17.57;;;8.27;;
22814;SDS011;11574;51.058;13.712;2022-10-13T07:39:27;21.67;;;9.10;;
22814;SDS011;11574;51.058;13.712;2022-10-13T07:44:30;18.90;;;9.20;;
22814;SDS011;11574;51.058;13.712;2022-10-13T07:49:33;17.10;;;8.87;;
22814;SDS011;11574;51.058;13.712;2022-10-13T07:54:35;18.43;;;8.33;;
22814;SDS011;11574;51.058;13.712;2022-10-13T07:59:37;19.50;;;8.57;;
22814;SDS011;11574;51.058;13.712;2022-10-13T08:04:43;18.80;;;9.00;;
22814;SDS011;11574;51.058;13.712;2022-10-13T08:09:46;18.63;;;9.10;;
22814;SDS011;11574;51.058;13.712;2022-10-13T08:14:53;15.80;;;8.50;;
22814;SDS011;11574;51.058;13.712;2022-10-13T08:19:56;23.03;;;9.57;;
22814;SDS011;11574;51.058;13.712;2022-10-13T08:24:58;19.63;;;8.00;;
22814;SDS011;11574;51.058;13.712;2022-10-13T08:30:01;19.50;;;8.37;;
22814;SDS011;11574;51.058;13.712;2022-10-13T08:35:05;17.20;;;8.57;;
22814;SDS011;11574;51.058;13.712;2022-10-13T08:40:10;15.03;;;8.33;;
22814;SDS011;11574;51.058;13.712;2022-10-13T08:45:14;17.60;;;8.30;;
22814;SDS011;11574;51.058;13.712;2022-10-13T08:50:20;17.13;;;9.97;;
22814;SDS011;11574;51.058;13.712;2022-10-13T08:55:23;18.37;;;8.63;;
22814;SDS011;11574;51.058;13.712;2022-10-13T09:00:27;19.43;;;9.10;;
22814;SDS011;11574;51.058;13.712;2022-10-13T09:05:33;14.17;;;8.33;;
22814;SDS011;11574;51.058;13.712;2022-10-13T09:10:44;15.30;;;8.38;;
22814;SDS011;11574;51.058;13.712;2022-10-13T09:15:47;16.27;;;8.60;;
22814;SDS011;11574;51.058;13.712;2022-10-13T09:20:51;22.23;;;8.73;;
22814;SDS011;11574;51.058;13.712;2022-10-13T09:26:13;16.23;;;8.13;;
22814;SDS011;11574;51.058;13.712;2022-10-13T09:31:18;16.13;;;8.40;;
22814;SDS011;11574;51.058;13.712;2022-10-13T09:36:25;17.97;;;8.63;;
22814;SDS011;11574;51.058;13.712;2022-10-13T09:41:27;14.68;;;7.63;;
22814;SDS011;11574;51.058;13.712;2022-10-13T09:46:30;17.50;;;8.03;;
22814;SDS011;11574;51.058;13.712;2022-10-13T09:51:35;20.90;;;8.03;;
22814;SDS011;11574;51.058;13.712;2022-10-13T09:56:40;17.77;;;8.32;;
22814;SDS011;11574;51.058;13.712;2022-10-13T10:01:44;16.42;;;8.10;;
22814;SDS011;11574;51.058;13.712;2022-10-13T10:06:50;17.40;;;8.40;;
22814;SDS011;11574;51.058;13.712;2022-10-13T10:11:52;13.57;;;8.43;;
22814;SDS011;11574;51.058;13.712;2022-10-13T10:16:57;22.87;;;9.00;;
22814;SDS011;11574;51.058;13.712;2022-10-13T10:22:04;16.27;;;9.17;;
22814;SDS011;11574;51.058;13.712;2022-10-13T10:27:12;16.23;;;7.57;;
22814;SDS011;11574;51.058;13.712;2022-10-13T10:32:20;15.87;;;7.97;;
22814;SDS011;11574;51.058;13.712;2022-10-13T10:37:37;21.20;;;8.13;;
22814;SDS011;11574;51.058;13.712;2022-10-13T10:48:01;14.67;;;7.60;;
22814;SDS011;11574;51.058;13.712;2022-10-13T10:53:07;19.27;;;8.07;;
22814;SDS011;11574;51.058;13.712;2022-10-13T10:58:18;13.30;;;7.03;;
22814;SDS011;11574;51.058;13.712;2022-10-13T11:03:23;16.40;;;7.47;;
22814;SDS011;11574;51.058;13.712;2022-10-13T11:08:39;15.13;;;8.17;;
22814;SDS011;11574;51.058;13.712;2022-10-13T11:13:48;17.20;;;7.50;;
22814;SDS011;11574;51.058;13.712;2022-10-13T11:18:55;14.43;;;6.87;;
22814;SDS011;11574;51.058;13.712;2022-10-13T11:24:07;16.97;;;7.07;;
22814;SDS011;11574;51.058;13.712;2022-10-13T11:34:52;17.77;;;7.83;;
22814;SDS011;11574;51.058;13.712;2022-10-13T11:40:12;15.00;;;6.77;;
22814;SDS011;11574;51.058;13.712;2022-10-13T11:45:22;9.57;;;5.93;;
22814;SDS011;11574;51.058;13.712;2022-10-13T11:50:28;13.03;;;6.03;;
22814;SDS011;11574;51.058;13.712;2022-10-13T11:55:41;18.47;;;6.70;;
22814;SDS011;11574;51.058;13.712;2022-10-13T12:00:52;12.07;;;6.17;;
22814;SDS011;11574;51.058;13.712;2022-10-13T12:05:55;13.07;;;6.30;;
22814;SDS011;11574;51.058;13.712;2022-10-13T12:10:59;12.50;;;5.97;;
22814;SDS011;11574;51.058;13.712;2022-10-13T12:16:06;14.07;;;6.20;;
22814;SDS011;11574;51.058;13.712;2022-10-13T12:21:09;10.47;;;5.23;;
22814;SDS011;11574;51.058;13.712;2022-10-13T12:26:14;13.40;;;5.37;;
22814;SDS011;11574;51.058;13.712;2022-10-13T12:31:18;14.63;;;6.10;;
22814;SDS011;11574;51.058;13.712;2022-10-13T12:36:23;10.90;;;5.73;;
22814;SDS011;11574;51.058;13.712;2022-10-13T12:41:28;15.77;;;5.70;;
22814;SDS011;11574;51.058;13.712;2022-10-13T12:46:34;16.20;;;5.87;;
22814;SDS011;11574;51.058;13.712;2022-10-13T12:51:37;12.23;;;5.50;;
22814;SDS011;11574;51.058;13.712;2022-10-13T12:56:41;11.93;;;6.23;;
22814;SDS011;11574;51.058;13.712;2022-10-13T13:01:44;13.03;;;5.40;;
22814;SDS011;11574;51.058;13.712;2022-10-13T13:06:53;11.37;;;5.80;;
22814;SDS011;11574;51.058;13.712;2022-10-13T13:17:22;14.77;;;5.50;;
22814;SDS011;11574;51.058;13.712;2022-10-13T13:22:25;10.87;;;5.00;;
22814;SDS011;11574;51.058;13.712;2022-10-13T13:27:31;12.17;;;5.17;;
22814;SDS011;11574;51.058;13.712;2022-10-13T13:32:36;12.23;;;4.83;;
22814;SDS011;11574;51.058;13.712;2022-10-13T13:37:39;12.37;;;5.07;;
22814;SDS011;11574;51.058;13.712;2022-10-13T13:42:42;9.60;;;4.97;;
22814;SDS011;11574;51.058;13.712;2022-10-13T13:47:46;9.93;;;4.50;;
22814;SDS011;11574;51.058;13.712;2022-10-13T13:52:48;9.80;;;4.83;;
22814;SDS011;11574;51.058;13.712;2022-10-13T13:57:50;11.43;;;5.97;;
22814;SDS011;11574;51.058;13.712;2022-10-13T14:02:54;16.97;;;6.23;;
22814;SDS011;11574;51.058;13.712;2022-10-13T14:07:56;14.33;;;5.87;;
22814;SDS011;11574;51.058;13.712;2022-10-13T14:12:59;13.03;;;5.10;;
22814;SDS011;11574;51.058;13.712;2022-10-13T14:18:03;9.20;;;4.83;;
22814;SDS011;11574;51.058;13.712;2022-10-13T14:23:05;13.80;;;5.77;;
22814;SDS011;11574;51.058;13.712;2022-10-13T14:28:08;13.40;;;5.63;;
22814;SDS011;11574;51.058;13.712;2022-10-13T14:33:11;11.93;;;5.93;;
22814;SDS011;11574;51.058;13.712;2022-10-13T14:38:18;11.20;;;5.67;;
22814;SDS011;11574;51.058;13.712;2022-10-13T14:43:20;10.97;;;5.33;;
22814;SDS011;11574;51.058;13.712;2022-10-13T14:48:23;11.47;;;5.37;;
22814;SDS011;11574;51.058;13.712;2022-10-13T14:53:26;14.27;;;5.60;;
22814;SDS011;11574;51.058;13.712;2022-10-13T14:58:28;15.20;;;5.50;;
22814;SDS011;11574;51.058;13.712;2022-10-13T15:03:32;9.50;;;5.30;;
22814;SDS011;11574;51.058;13.712;2022-10-13T15:08:34;9.17;;;5.23;;
22814;SDS011;11574;51.058;13.712;2022-10-13T15:13:37;13.77;;;5.67;;
22814;SDS011;11574;51.058;13.712;2022-10-13T15:18:41;8.27;;;5.67;;
22814;SDS011;11574;51.058;13.712;2022-10-13T15:23:43;14.23;;;6.23;;
22814;SDS011;11574;51.058;13.712;2022-10-13T15:28:46;14.77;;;5.80;;
22814;SDS011;11574;51.058;13.712;2022-10-13T15:33:53;12.47;;;6.30;;
22814;SDS011;11574;51.058;13.712;2022-10-13T15:38:55;13.83;;;5.60;;
22814;SDS011;11574;51.058;13.712;2022-10-13T15:43:59;13.60;;;6.43;;
22814;SDS011;11574;51.058;13.712;2022-10-13T15:49:03;13.57;;;6.30;;
22814;SDS011;11574;51.058;13.712;2022-10-13T15:54:05;13.37;;;6.80;;
22814;SDS011;11574;51.058;13.712;2022-10-13T15:59:07;10.43;;;6.40;;
22814;SDS011;11574;51.058;13.712;2022-10-13T16:04:13;20.30;;;7.57;;
22814;SDS011;11574;51.058;13.712;2022-10-13T16:09:15;13.53;;;6.17;;
22814;SDS011;11574;51.058;13.712;2022-10-13T16:14:20;19.30;;;7.80;;
22814;SDS011;11574;51.058;13.712;2022-10-13T16:19:23;16.90;;;7.50;;
22814;SDS011;11574;51.058;13.712;2022-10-13T16:24:25;16.47;;;8.73;;
22814;SDS011;11574;51.058;13.712;2022-10-13T16:29:29;16.30;;;8.47;;
22814;SDS011;11574;51.058;13.712;2022-10-13T16:34:32;16.63;;;7.97;;
22814;SDS011;11574;51.058;13.712;2022-10-13T16:39:35;14.07;;;8.23;;
22814;SDS011;11574;51.058;13.712;2022-10-13T16:44:37;14.70;;;8.70;;
22814;SDS011;11574;51.058;13.712;2022-10-13T16:49:41;19.50;;;9.70;;
22814;SDS011;11574;51.058;13.712;2022-10-13T16:54:44;21.77;;;9.77;;
22814;SDS011;11574;51.058;13.712;2022-10-13T16:59:52;23.43;;;10.30;;
22814;SDS011;11574;51.058;13.712;2022-10-13T17:04:55;20.23;;;9.73;;
22814;SDS011;11574;51.058;13.712;2022-10-13T17:09:57;24.07;;;11.87;;
22814;SDS011;11574;51.058;13.712;2022-10-13T17:15:03;17.13;;;9.57;;
22814;SDS011;11574;51.058;13.712;2022-10-13T17:20:16;20.17;;;8.87;;
22814;SDS011;11574;51.058;13.712;2022-10-13T17:25:21;22.23;;;9.93;;
22814;SDS011;11574;51.058;13.712;2022-10-13T17:30:23;23.13;;;10.70;;
22814;SDS011;11574;51.058;13.712;2022-10-13T17:35:27;22.07;;;10.67;;
22814;SDS011;11574;51.058;13.712;2022-10-13T17:40:32;20.83;;;13.33;;
22814;SDS011;11574;51.058;13.712;2022-10-13T17:45:37;28.77;;;15.33;;
22814;SDS011;11574;51.058;13.712;2022-10-13T17:50:41;27.03;;;11.07;;
22814;SDS011;11574;51.058;13.712;2022-10-13T17:55:43;23.57;;;11.50;;
22814;SDS011;11574;51.058;13.712;2022-10-13T18:00:45;26.90;;;15.10;;
22814;SDS011;11574;51.058;13.712;2022-10-13T18:05:48;30.30;;;14.97;;
22814;SDS011;11574;51.058;13.712;2022-10-13T18:10:51;28.80;;;15.27;;
22814;SDS011;11574;51.058;13.712;2022-10-13T18:15:53;31.03;;;14.97;;
22814;SDS011;11574;51.058;13.712;2022-10-13T18:20:57;32.23;;;17.33;;
22814;SDS011;11574;51.058;13.712;2022-10-13T18:26:03;29.43;;;12.70;;
22814;SDS011;11574;51.058;13.712;2022-10-13T18:31:07;23.07;;;14.07;;
22814;SDS011;11574;51.058;13.712;2022-10-13T18:36:11;21.23;;;13.77;;
22814;SDS011;11574;51.058;13.712;2022-10-13T18:41:14;23.23;;;13.83;;
22814;SDS011;11574;51.058;13.712;2022-10-13T18:46:17;20.77;;;13.50;;
22814;SDS011;11574;51.058;13.712;2022-10-13T18:51:21;23.93;;;12.70;;
22814;SDS011;11574;51.058;13.712;2022-10-13T18:56:23;24.20;;;12.67;;
22814;SDS011;11574;51.058;13.712;2022-10-13T19:01:27;24.93;;;13.30;;
22814;SDS011;11574;51.058;13.712;2022-10-13T19:06:31;19.50;;;11.80;;
22814;SDS011;11574;51.058;13.712;2022-10-13T19:11:34;20.70;;;11.63;;
22814;SDS011;11574;51.058;13.712;2022-10-13T19:16:39;19.83;;;12.10;;
22814;SDS011;11574;51.058;13.712;2022-10-13T19:21:54;21.20;;;12.83;;
22814;SDS011;11574;51.058;13.712;2022-10-13T19:27:13;16.63;;;12.07;;
22814;SDS011;11574;51.058;13.712;2022-10-13T19:32:17;21.50;;;11.73;;
22814;SDS011;11574;51.058;13.712;2022-10-13T19:37:21;18.57;;;11.23;;
22814;SDS011;11574;51.058;13.712;2022-10-13T19:42:23;17.07;;;10.97;;
22814;SDS011;11574;51.058;13.712;2022-10-13T19:47:25;18.93;;;11.13;;
22814;SDS011;11574;51.058;13.712;2022-10-13T19:52:31;21.93;;;11.40;;
22814;SDS011;11574;51.058;13.712;2022-10-13T19:57:33;26.10;;;13.03;;
22814;SDS011;11574;51.058;13.712;2022-10-13T20:08:17;23.60;;;12.33;;
22814;SDS011;11574;51.058;13.712;2022-10-13T20:13:20;19.17;;;11.50;;
22814;SDS011;11574;51.058;13.712;2022-10-13T20:18:22;26.10;;;15.43;;
22814;SDS011;11574;51.058;13.712;2022-10-13T20:23:26;22.23;;;14.73;;
22814;SDS011;11574;51.058;13.712;2022-10-13T20:28:28;21.23;;;14.23;;
22814;SDS011;11574;51.058;13.712;2022-10-13T20:33:31;28.07;;;15.00;;
22814;SDS011;11574;51.058;13.712;2022-10-13T20:38:35;25.87;;;14.77;;
22814;SDS011;11574;51.058;13.712;2022-10-13T20:43:37;28.03;;;16.37;;
22814;SDS011;11574;51.058;13.712;2022-10-13T20:48:39;23.87;;;14.00;;
22814;SDS011;11574;51.058;13.712;2022-10-13T20:53:44;27.73;;;13.93;;
22814;SDS011;11574;51.058;13.712;2022-10-13T20:58:46;25.73;;;14.33;;
22814;SDS011;11574;51.058;13.712;2022-10-13T21:03:52;23.43;;;14.33;;
22814;SDS011;11574;51.058;13.712;2022-10-13T21:08:55;24.17;;;13.57;;
22814;SDS011;11574;51.058;13.712;2022-10-13T21:13:57;27.03;;;15.43;;
22814;SDS011;11574;51.058;13.712;2022-10-13T21:19:02;27.53;;;15.57;;
22814;SDS011;11574;51.058;13.712;2022-10-13T21:24:06;25.93;;;16.07;;
22814;SDS011;11574;51.058;13.712;2022-10-13T21:29:08;24.87;;;14.87;;
22814;SDS011;11574;51.058;13.712;2022-10-13T21:34:11;25.53;;;15.67;;
22814;SDS011;11574;51.058;13.712;2022-10-13T21:39:14;27.20;;;16.57;;
22814;SDS011;11574;51.058;13.712;2022-10-13T21:44:17;27.50;;;17.23;;
22814;SDS011;11574;51.058;13.712;2022-10-13T21:49:19;28.87;;;18.23;;
22814;SDS011;11574;51.058;13.712;2022-10-13T21:54:23;34.23;;;19.10;;
22814;SDS011;11574;51.058;13.712;2022-10-13T21:59:25;32.00;;;18.67;;
22814;SDS011;11574;51.058;13.712;2022-10-13T22:04:27;37.20;;;20.83;;
22814;SDS011;11574;51.058;13.712;2022-10-13T22:09:32;30.50;;;19.43;;
22814;SDS011;11574;51.058;13.712;2022-10-13T22:14:34;32.07;;;19.53;;
22814;SDS011;11574;51.058;13.712;2022-10-13T22:19:37;37.10;;;20.13;;
22814;SDS011;11574;51.058;13.712;2022-10-13T22:24:40;32.37;;;19.13;;
22814;SDS011;11574;51.058;13.712;2022-10-13T22:29:43;32.80;;;19.10;;
22814;SDS011;11574;51.058;13.712;2022-10-13T22:34:45;30.90;;;19.53;;
22814;SDS011;11574;51.058;13.712;2022-10-13T22:39:48;32.00;;;19.40;;
22814;SDS011;11574;51.058;13.712;2022-10-13T22:44:50;35.57;;;18.77;;
22814;SDS011;11574;51.058;13.712;2022-10-13T22:49:52;27.53;;;17.10;;
22814;SDS011;11574;51.058;13.712;2022-10-13T22:54:56;31.30;;;17.53;;
22814;SDS011;11574;51.058;13.712;2022-10-13T22:59:58;26.50;;;18.10;;
22814;SDS011;11574;51.058;13.712;2022-10-13T23:05:01;38.97;;;19.63;;
22814;SDS011;11574;51.058;13.712;2022-10-13T23:10:05;29.67;;;18.83;;
22814;SDS011;11574;51.058;13.712;2022-10-13T23:15:08;28.00;;;19.17;;
22814;SDS011;11574;51.058;13.712;2022-10-13T23:20:10;32.20;;;18.37;;
22814;SDS011;11574;51.058;13.712;2022-10-13T23:25:14;29.07;;;18.43;;
22814;SDS011;11574;51.058;13.712;2022-10-13T23:30:19;35.00;;;18.10;;
22814;SDS011;11574;51.058;13.712;2022-10-13T23:35:21;31.20;;;19.20;;
22814;SDS011;11574;51.058;13.712;2022-10-13T23:40:24;31.60;;;18.57;;
22814;SDS011;11574;51.058;13.712;2022-10-13T23:45:26;31.43;;;19.33;;
22814;SDS011;11574;51.058;13.712;2022-10-13T23:50:29;34.20;;;20.23;;
22814;SDS011;11574;51.058;13.712;2022-10-13T23:55:35;31.17;;;19.50;;
